Jump to content
Cold?
Local
Radar
Snow?

Southeast England and East Anglia - Weather Chat


Recommended Posts

  • Replies 3.5k
  • Created
  • Last Reply

Top Posters In This Topic

Top Posters In This Topic

Popular Posts

Just another link-   The Euro4 model is the one my above post but will add again- For beginners use these 2 - you can just change the timelines with each model run ( some 2 hours after each run it

The front is now beginning to push in-   Watch out for the dewpoints to start dropping from the SE later in the eve,   There is a LOT of of PPN out in the channel arcing NNE ( NNN - even NNW)  

You sound like my ex

Posted Images

Evening all. Well, the charts look very poor for coldies at the moment. Rinse and repeat between cooler and milder with wind and rain thrown in. Perhaps an outside shot at some temporary slushy coverings later next week into week 3.

End of Jan and into Feb we look now for some potential proper white stuff. I'm taking a punt and will say look towards Scandinavia as we enter February....If that fails then the fat lady will be clearing her throat.

Afternoon all. Well it seems it is playing out as I thought it may last week. Perhaps even a bit earlier if the charts this morn are anything to go by!...a nice upgrade within the medium term for once.

I am still thinking look North East as the month of Jan departs for our cold and snowy weather. Still hopeful of some laying snow for our region before Feb. Fingers crossed eh!

Edited by Shrimper
  • Like 1
Link to post
Share on other sites

First rumble of thunder for 2015 heard here in sarf London, quite an active trough just cleared through the London area.

Link to post
Share on other sites

well someone said snow so I looked at the radar. I not surprised there has been thunder, thought i was hearing things when I heard a low rumble about half hour ago.

Link to post
Share on other sites

London Luton and Stansted airport TAFs going for snow showers overnight (between midnight and 8am)

 

EGGW 131100Z 1312/1412 23011KT 9999 SCT040 PROB40 TEMPO 1312/1315 23015G25KT 5000 SHRAGS BKN010CB PROB40 TEMPO 1318/1324 3000 SHRASN BKN006 PROB40 TEMPO 1400/1408 23015G25KT 1000 SHSN BKN002

 

EGSS 131416Z 1314/1418 23009KT 9999 SCT040 PROB40 TEMPO 1314/1315 23015G25KT 2000 +TSGS BKN014CB PROB30 TEMPO 1318/1324 4000 SHRASN BKN007 PROB30 TEMPO 1400/1408 23015G25KT 1400 SHSN BKN003 BECMG 1416/1418 17015KT

 

Sleet overnight at other London airports that go out that far.

Edited by Nick F
  • Like 3
Link to post
Share on other sites

Just some light rain here, continuous for a few hours so it put down a bit of surface water, feeling cooler in the breeze, now we have sunny spells the rain has stopped.

  • Like 1
Link to post
Share on other sites
Guest
This topic is now closed to further replies.
×
×
  • Create New...